createdAt,value
2022-11-06T00:00:37.708Z,1.33
2022-11-06T00:03:04.448Z,1.10
2022-11-06T00:05:49.558Z,1.42
2022-11-06T00:08:16.587Z,1.75
2022-11-06T00:10:43.075Z,1.80
2022-11-06T00:13:09.399Z,1.90
2022-11-06T00:15:35.712Z,1.58
2022-11-06T00:18:02.043Z,1.23
2022-11-06T00:20:28.373Z,2.13
2022-11-06T00:22:54.700Z,1.17
2022-11-06T00:25:21.019Z,1.60
2022-11-06T00:27:47.578Z,1.30
2022-11-06T00:30:13.900Z,1.40
2022-11-06T00:32:40.285Z,1.20
2022-11-06T00:35:06.785Z,1.65
2022-11-06T00:37:33.609Z,2.00
2022-11-06T00:40:00.735Z,1.10
2022-11-06T00:42:27.278Z,1.67
2022-11-06T00:44:53.623Z,1.50
2022-11-06T00:47:19.931Z,1.60
2022-11-06T00:49:46.326Z,1.17
2022-11-06T00:52:13.007Z,1.95
2022-11-06T00:54:39.318Z,1.50
2022-11-06T00:57:05.639Z,1.50
2022-11-06T00:59:31.976Z,1.35
2022-11-06T01:01:58.676Z,1.00
2022-11-06T01:04:25.219Z,1.00
2022-11-06T01:06:53.738Z,2.05
2022-11-06T01:09:21.542Z,1.30
2022-11-06T01:14:35.449Z,1.30
2022-11-06T01:17:01.758Z,1.50
2022-11-06T01:19:28.083Z,1.38
2022-11-06T01:21:54.524Z,1.17
2022-11-06T01:24:25.441Z,1.40
2022-11-06T01:27:24.879Z,1.15
2022-11-06T01:29:38.353Z,1.58
2022-11-06T01:32:04.856Z,1.02
2022-11-06T01:34:31.377Z,1.33
2022-11-06T01:36:57.704Z,1.42
2022-11-06T01:39:24.020Z,1.30
2022-11-06T01:41:51.590Z,1.77
2022-11-06T01:44:33.018Z,1.35
2022-11-06T01:46:59.772Z,0.95
2022-11-06T01:49:26.893Z,1.25
2022-11-06T01:51:54.942Z,1.02
2022-11-06T01:54:22.383Z,1.10
2022-11-06T01:56:50.132Z,1.10
2022-11-06T01:59:17.724Z,1.25
2022-11-06T02:01:44.311Z,1.10
2022-11-06T02:04:14.278Z,1.10
2022-11-06T02:06:40.855Z,1.35
2022-11-06T02:09:11.366Z,1.23
2022-11-06T02:11:38.819Z,1.13
2022-11-06T02:14:21.593Z,1.60
2022-11-06T02:16:52.766Z,1.00
2022-11-06T02:21:54.341Z,1.40
2022-11-06T02:24:35.510Z,1.55
2022-11-06T02:29:33.130Z,1.30
2022-11-06T02:32:00.064Z,1.50
2022-11-06T02:34:27.395Z,1.45
2022-11-06T02:37:06.988Z,1.10
2022-11-06T02:39:34.191Z,0.80
2022-11-06T02:42:01.358Z,1.77
2022-11-06T02:44:28.651Z,1.52
2022-11-06T02:47:02.927Z,2.30
2022-11-06T02:49:36.854Z,1.30
2022-11-06T02:52:20.751Z,1.58
2022-11-06T02:54:50.065Z,1.10
2022-11-06T02:57:17.336Z,1.42
2022-11-06T02:59:46.666Z,0.90
2022-11-06T03:02:17.048Z,1.73
2022-11-06T03:04:47.395Z,2.47
2022-11-06T03:07:28.722Z,1.37
2022-11-06T03:09:55.132Z,1.45
2022-11-06T03:12:41.951Z,1.52
2022-11-06T03:15:08.536Z,1.77
2022-11-06T03:17:41.758Z,1.73
2022-11-06T03:20:10.921Z,1.10
2022-11-06T03:22:42.140Z,1.20
2022-11-06T03:25:14.697Z,1.20
2022-11-06T03:28:03.177Z,1.10
2022-11-06T03:30:29.677Z,1.42
2022-11-06T03:32:58.982Z,1.45
2022-11-06T03:35:28.739Z,1.60
2022-11-06T03:38:00.975Z,1.52
2022-11-06T03:40:28.746Z,1.30
2022-11-06T03:42:56.938Z,1.20
2022-11-06T03:45:24.545Z,1.17
2022-11-06T03:47:55.695Z,1.23
2022-11-06T03:52:55.496Z,1.60
2022-11-06T03:55:28.067Z,1.52
2022-11-06T03:57:58.190Z,1.75
2022-11-06T04:00:24.523Z,1.63
2022-11-06T04:03:04.574Z,1.33
2022-11-06T04:05:50.434Z,1.43
2022-11-06T04:08:40.747Z,1.73
2022-11-06T04:11:27.613Z,1.60
2022-11-06T04:13:57.316Z,1.75
2022-11-06T04:16:25.116Z,1.23
2022-11-06T04:18:51.412Z,1.33
2022-11-06T04:21:27.057Z,1.40
2022-11-06T04:24:30.962Z,1.45
2022-11-06T04:27:09.620Z,1.42
2022-11-06T04:29:45.082Z,1.48
2022-11-06T04:32:13.972Z,0.88
2022-11-06T04:34:51.160Z,1.10
2022-11-06T04:37:17.456Z,1.98
2022-11-06T04:39:51.806Z,1.38
2022-11-06T04:42:26.950Z,1.38
2022-11-06T04:44:57.008Z,1.30
2022-11-06T04:47:24.109Z,1.08
2022-11-06T04:49:52.106Z,1.48
2022-11-06T04:52:19.830Z,1.08
2022-11-06T04:54:47.003Z,1.08
2022-11-06T04:57:13.582Z,1.00
2022-11-06T04:59:39.998Z,1.00
2022-11-06T05:02:06.597Z,1.00
2022-11-06T05:04:33.731Z,1.13
2022-11-06T05:07:00.227Z,1.27
2022-11-06T05:09:26.557Z,1.17
2022-11-06T05:11:53.027Z,0.95
2022-11-06T05:14:19.351Z,1.55
2022-11-06T05:16:45.724Z,1.45
2022-11-06T05:19:12.111Z,1.50
2022-11-06T05:21:57.271Z,1.55
2022-11-06T05:24:23.663Z,1.33
2022-11-06T05:26:54.636Z,1.98
2022-11-06T05:29:24.337Z,1.67
2022-11-06T05:31:50.886Z,0.82
2022-11-06T05:34:17.312Z,1.15
2022-11-06T05:36:43.660Z,1.30
2022-11-06T05:39:10.083Z,1.30
2022-11-06T05:41:36.415Z,1.60
2022-11-06T05:44:02.842Z,1.83
2022-11-06T05:46:47.704Z,1.60
2022-11-06T05:49:15.398Z,1.05
2022-11-06T05:51:41.848Z,1.70
2022-11-06T05:54:08.142Z,0.77
2022-11-06T05:56:34.496Z,1.25
2022-11-06T05:59:00.855Z,1.40
2022-11-06T06:01:27.277Z,1.67
2022-11-06T06:03:53.653Z,1.10
2022-11-06T06:06:20.375Z,1.10
2022-11-06T06:08:46.725Z,1.70
2022-11-06T06:11:13.007Z,1.42
2022-11-06T06:13:39.366Z,1.00
2022-11-06T06:16:07.097Z,1.50
2022-11-06T06:18:33.413Z,1.42
2022-11-06T06:20:59.933Z,1.10
2022-11-06T06:23:26.309Z,1.67
2022-11-06T06:25:52.671Z,1.58
2022-11-06T06:28:19.071Z,1.33
2022-11-06T06:30:45.423Z,1.25
2022-11-06T06:33:11.745Z,1.02
2022-11-06T06:35:38.055Z,1.05
2022-11-06T06:38:04.504Z,1.65
2022-11-06T06:40:30.927Z,1.70
2022-11-06T06:42:57.995Z,1.42
2022-11-06T06:45:25.278Z,1.48
2022-11-06T06:47:51.734Z,1.90
2022-11-06T06:50:18.150Z,1.20
2022-11-06T06:52:44.481Z,2.13
2022-11-06T06:55:10.928Z,1.45
2022-11-06T06:57:37.229Z,1.63
2022-11-06T07:00:04.053Z,1.27
2022-11-06T07:02:30.397Z,1.77
2022-11-06T07:04:56.728Z,1.30
2022-11-06T07:07:23.093Z,1.02
2022-11-06T07:09:49.922Z,1.23
2022-11-06T07:12:16.224Z,1.67
2022-11-06T07:14:42.577Z,1.70
2022-11-06T07:17:08.860Z,1.42
2022-11-06T07:19:35.189Z,2.00
2022-11-06T07:22:01.480Z,1.60
2022-11-06T07:24:27.804Z,1.73
2022-11-06T07:26:54.102Z,1.50
2022-11-06T07:29:20.377Z,1.42
2022-11-06T07:31:46.724Z,1.15
2022-11-06T07:34:13.057Z,1.50
2022-11-06T07:36:39.338Z,2.10
2022-11-06T07:39:05.653Z,1.60
2022-11-06T07:41:31.946Z,1.80
2022-11-06T07:43:58.270Z,1.42
2022-11-06T07:46:24.634Z,1.13
2022-11-06T07:48:50.923Z,1.67
2022-11-06T07:51:17.210Z,1.98
2022-11-06T07:53:43.501Z,1.40
2022-11-06T07:56:10.021Z,1.67
2022-11-06T07:58:36.501Z,1.35
2022-11-06T08:01:03.396Z,1.25
2022-11-06T08:03:30.289Z,1.50
2022-11-06T08:05:57.300Z,1.25
2022-11-06T08:08:23.630Z,1.55
2022-11-06T08:10:52.184Z,1.15
2022-11-06T08:13:18.685Z,1.50
2022-11-06T08:15:45.011Z,1.65
2022-11-06T08:18:12.208Z,1.30
2022-11-06T08:20:39.466Z,1.42
2022-11-06T08:23:07.358Z,1.20
2022-11-06T08:25:34.665Z,1.42
2022-11-06T08:28:02.126Z,1.30
2022-11-06T08:30:28.956Z,1.85
2022-11-06T08:32:55.739Z,1.85
2022-11-06T08:35:22.214Z,1.40
2022-11-06T08:37:48.550Z,1.58
2022-11-06T08:40:14.849Z,1.10
2022-11-06T08:42:41.165Z,1.23
2022-11-06T08:45:07.843Z,1.63
2022-11-06T08:47:34.211Z,1.25
2022-11-06T08:50:00.517Z,1.55
2022-11-06T08:52:31.200Z,1.27
2022-11-06T08:55:00.125Z,1.48
2022-11-06T08:57:26.977Z,1.60
2022-11-06T08:59:53.266Z,1.63
2022-11-06T09:02:19.700Z,1.70
2022-11-06T09:04:46.019Z,1.60
2022-11-06T09:07:12.335Z,1.67
2022-11-06T09:09:38.664Z,1.58
2022-11-06T09:12:05.185Z,1.42
2022-11-06T09:14:33.107Z,1.38
2022-11-06T09:16:59.425Z,1.58
2022-11-06T09:19:25.914Z,1.67
2022-11-06T09:21:54.843Z,1.17
2022-11-06T09:24:37.527Z,1.35
2022-11-06T09:27:07.823Z,1.35
2022-11-06T09:29:34.112Z,1.17
2022-11-06T09:32:00.393Z,1.15
2022-11-06T09:34:26.699Z,0.98
2022-11-06T09:36:53.016Z,1.33
2022-11-06T09:39:19.415Z,1.20
2022-11-06T09:41:56.242Z,1.30
2022-11-06T09:44:28.231Z,0.93
2022-11-06T09:46:55.838Z,0.90
2022-11-06T09:49:24.919Z,1.13
2022-11-06T09:52:00.480Z,1.25
2022-11-06T09:54:36.762Z,1.00
2022-11-06T09:57:11.058Z,0.80
2022-11-06T09:59:38.186Z,1.60
2022-11-06T10:02:15.786Z,1.60
2022-11-06T10:04:49.364Z,1.25
2022-11-06T10:07:27.992Z,1.05
2022-11-06T10:09:54.584Z,1.08
2022-11-06T10:12:27.469Z,1.27
2022-11-06T10:15:01.269Z,1.30
2022-11-06T10:17:35.847Z,1.55
2022-11-06T10:20:11.175Z,1.10
2022-11-06T10:22:41.720Z,1.35
2022-11-06T10:25:22.145Z,1.48
2022-11-06T10:27:48.421Z,1.15
2022-11-06T10:30:17.060Z,1.05
2022-11-06T10:33:02.423Z,1.35
2022-11-06T10:35:44.941Z,1.15
2022-11-06T10:38:13.416Z,1.02
2022-11-06T10:40:42.664Z,1.35
2022-11-06T10:43:14.568Z,0.93
2022-11-06T10:45:43.563Z,1.00
2022-11-06T10:48:17.778Z,1.17
2022-11-06T10:50:50.249Z,1.00
2022-11-06T10:53:34.956Z,1.20
2022-11-06T10:56:09.670Z,1.23
2022-11-06T10:58:37.251Z,1.13
2022-11-06T11:01:04.517Z,0.90
2022-11-06T11:03:40.019Z,0.80
2022-11-06T11:06:06.396Z,0.95
2022-11-06T11:08:45.674Z,0.93
2022-11-06T11:11:15.366Z,1.13
2022-11-06T11:13:42.727Z,1.20
2022-11-06T11:16:19.956Z,1.20
2022-11-06T11:18:46.564Z,1.08
2022-11-06T11:21:16.364Z,1.30
2022-11-06T11:23:43.664Z,0.90
2022-11-06T11:26:13.034Z,0.73
2022-11-06T11:28:40.258Z,0.70
2022-11-06T11:31:06.602Z,1.00
2022-11-06T11:33:33.155Z,0.98
2022-11-06T11:35:59.810Z,0.50
2022-11-06T11:38:26.873Z,1.23
2022-11-06T11:41:04.910Z,0.90
2022-11-06T11:43:32.891Z,0.77
2022-11-06T11:46:08.317Z,0.80
2022-11-06T11:48:48.184Z,0.65
2022-11-06T11:51:33.358Z,0.80
2022-11-06T11:54:03.648Z,0.70
2022-11-06T11:57:02.301Z,0.90
2022-11-06T11:59:18.183Z,1.00
2022-11-06T12:01:44.772Z,1.33
2022-11-06T12:04:36.473Z,0.98
2022-11-06T12:07:08.013Z,1.05
2022-11-06T12:09:44.755Z,0.85
2022-11-06T12:12:22.450Z,0.75
2022-11-06T12:15:02.838Z,0.80
2022-11-06T12:17:30.955Z,0.95
2022-11-06T12:19:58.885Z,0.52
2022-11-06T12:22:27.962Z,0.75
2022-11-06T12:24:58.406Z,0.57
2022-11-06T12:27:29.785Z,0.70
2022-11-06T12:30:03.616Z,0.60
2022-11-06T12:32:53.194Z,0.50
2022-11-06T12:35:24.090Z,0.60
2022-11-06T12:40:24.746Z,0.73
2022-11-06T12:42:58.170Z,0.77
2022-11-06T12:45:28.440Z,0.60
2022-11-06T12:48:03.721Z,0.35
2022-11-06T12:50:33.152Z,0.40
2022-11-06T12:53:10.818Z,0.80
2022-11-06T12:55:50.280Z,0.45
2022-11-06T12:58:27.978Z,0.50
2022-11-06T13:01:09.469Z,0.68
2022-11-06T13:03:41.608Z,0.50
2022-11-06T13:06:13.673Z,0.50
2022-11-06T13:08:47.218Z,0.47
2022-11-06T13:11:13.497Z,0.50
2022-11-06T13:13:48.758Z,0.30
2022-11-06T13:16:27.390Z,0.40
2022-11-06T13:18:56.277Z,0.60
2022-11-06T13:21:39.353Z,0.60
2022-11-06T13:24:09.974Z,0.65
2022-11-06T13:26:40.304Z,0.43
2022-11-06T13:29:10.020Z,0.70
2022-11-06T13:31:51.901Z,0.50
2022-11-06T13:34:38.039Z,0.70
2022-11-06T13:37:15.134Z,0.68
2022-11-06T13:39:44.382Z,0.50
2022-11-06T13:42:20.790Z,0.80
2022-11-06T13:44:47.892Z,0.63
2022-11-06T13:47:25.559Z,0.70
2022-11-06T13:49:51.890Z,0.50
2022-11-06T13:52:25.170Z,0.50
2022-11-06T13:55:16.603Z,0.70
2022-11-06T13:57:45.957Z,0.60
2022-11-06T14:00:23.085Z,0.70
2022-11-06T14:03:07.919Z,0.60
2022-11-06T14:05:45.368Z,0.60
2022-11-06T14:08:14.939Z,0.60
2022-11-06T14:10:47.311Z,0.60
2022-11-06T14:13:15.223Z,0.40
2022-11-06T14:15:41.946Z,0.60
2022-11-06T14:18:13.665Z,0.50
2022-11-06T14:20:40.377Z,0.47
2022-11-06T14:23:25.603Z,0.82
2022-11-06T14:25:58.914Z,0.90
2022-11-06T14:28:29.100Z,0.70
2022-11-06T14:31:13.242Z,0.90
2022-11-06T14:33:40.482Z,0.63
2022-11-06T14:36:13.996Z,0.73
2022-11-06T14:38:41.542Z,0.85
2022-11-06T14:41:26.548Z,0.90
2022-11-06T14:43:54.520Z,0.93
2022-11-06T14:46:22.829Z,0.88
2022-11-06T14:48:50.783Z,0.75
2022-11-06T14:51:24.775Z,0.98
2022-11-06T14:53:52.468Z,1.05
2022-11-06T14:56:45.069Z,0.40
2022-11-06T14:59:22.075Z,0.60
2022-11-06T15:01:55.229Z,0.70
2022-11-06T15:04:22.298Z,0.65
2022-11-06T15:06:50.356Z,0.60
2022-11-06T15:09:22.922Z,0.85
2022-11-06T15:11:53.511Z,0.73
2022-11-06T15:14:19.816Z,0.70
2022-11-06T15:16:55.611Z,0.70
2022-11-06T15:19:24.893Z,0.50
2022-11-06T15:22:06.862Z,0.70
2022-11-06T15:24:35.967Z,1.05
2022-11-06T15:27:08.656Z,0.70
2022-11-06T15:29:36.946Z,0.60
2022-11-06T15:32:09.414Z,0.65
2022-11-06T15:34:37.342Z,0.70
2022-11-06T15:37:03.619Z,0.68
2022-11-06T15:39:33.248Z,0.70
2022-11-06T15:41:59.601Z,0.93
2022-11-06T15:44:26.337Z,0.60
2022-11-06T15:46:53.908Z,0.70
2022-11-06T15:49:20.548Z,0.63
2022-11-06T15:51:54.479Z,0.77
2022-11-06T15:54:30.379Z,0.70
2022-11-06T15:56:57.159Z,0.90
2022-11-06T15:59:23.471Z,1.00
2022-11-06T16:01:49.902Z,0.70
2022-11-06T16:04:20.901Z,0.73
2022-11-06T16:06:47.665Z,0.80
2022-11-06T16:09:16.269Z,0.80
2022-11-06T16:11:43.657Z,0.80
2022-11-06T16:14:12.725Z,0.90
2022-11-06T16:16:41.433Z,0.70
2022-11-06T16:19:19.704Z,0.90
2022-11-06T16:21:52.005Z,0.95
2022-11-06T16:24:18.337Z,0.60
2022-11-06T16:26:46.715Z,0.75
2022-11-06T16:29:19.449Z,0.68
2022-11-06T16:31:46.424Z,0.82
2022-11-06T16:34:33.162Z,0.55
2022-11-06T16:37:01.203Z,0.77
2022-11-06T16:39:47.673Z,0.90
2022-11-06T16:42:31.204Z,0.60
2022-11-06T16:45:11.262Z,0.60
2022-11-06T16:47:37.564Z,0.57
2022-11-06T16:50:05.885Z,1.10
2022-11-06T16:52:39.136Z,0.98
2022-11-06T16:55:16.867Z,0.73
2022-11-06T16:57:48.940Z,0.95
2022-11-06T17:00:21.104Z,0.60
2022-11-06T17:02:55.779Z,1.00
2022-11-06T17:05:23.745Z,0.80
2022-11-06T17:08:04.753Z,0.75
2022-11-06T17:10:40.223Z,0.82
2022-11-06T17:13:17.237Z,0.80
2022-11-06T17:15:44.774Z,1.00
2022-11-06T17:18:14.507Z,1.00
2022-11-06T17:20:41.401Z,0.60
2022-11-06T17:23:14.987Z,0.95
2022-11-06T17:25:42.626Z,1.10
2022-11-06T17:28:09.687Z,1.38
2022-11-06T17:30:36.247Z,0.90
2022-11-06T17:33:02.582Z,1.13
2022-11-06T17:35:28.917Z,0.90
2022-11-06T17:37:55.511Z,0.90
2022-11-06T17:40:21.899Z,1.02
2022-11-06T17:42:48.246Z,0.88
2022-11-06T17:45:14.697Z,1.10
2022-11-06T17:47:41.048Z,0.80
2022-11-06T17:50:07.719Z,1.15
2022-11-06T17:52:34.088Z,1.20
2022-11-06T17:55:00.385Z,1.17
2022-11-06T17:57:26.770Z,1.17
2022-11-06T17:59:53.083Z,1.08
2022-11-06T18:02:40.841Z,1.23
2022-11-06T18:05:05.962Z,0.93
2022-11-06T18:07:32.322Z,1.00
2022-11-06T18:09:58.688Z,1.08
2022-11-06T18:12:27.501Z,1.00
2022-11-06T18:14:53.849Z,0.73
2022-11-06T18:17:20.208Z,1.05
2022-11-06T18:19:46.584Z,1.15
2022-11-06T18:22:12.925Z,1.10
2022-11-06T18:24:39.946Z,1.27
2022-11-06T18:27:06.235Z,1.10
2022-11-06T18:29:32.538Z,0.95
2022-11-06T18:31:58.932Z,0.93
2022-11-06T18:34:25.302Z,1.45
2022-11-06T18:36:51.792Z,0.93
2022-11-06T18:39:18.383Z,0.98
2022-11-06T18:41:44.736Z,1.20
2022-11-06T18:44:11.170Z,1.27
2022-11-06T18:46:37.536Z,1.00
2022-11-06T18:49:03.863Z,1.08
2022-11-06T18:51:35.894Z,1.40
2022-11-06T18:54:04.843Z,1.15
2022-11-06T18:56:32.501Z,1.48
2022-11-06T18:58:59.220Z,0.88
2022-11-06T19:01:25.874Z,1.13
2022-11-06T19:03:52.462Z,1.17
2022-11-06T19:06:19.757Z,1.55
2022-11-06T19:08:46.181Z,1.10
2022-11-06T19:11:13.801Z,1.10
2022-11-06T19:13:46.291Z,1.23
2022-11-06T19:16:14.310Z,1.70
2022-11-06T19:18:41.031Z,1.50
2022-11-06T19:21:09.106Z,1.80
2022-11-06T19:23:39.129Z,1.50
2022-11-06T19:29:00.012Z,1.50
2022-11-06T19:31:29.192Z,1.65
2022-11-06T19:33:59.737Z,2.17
2022-11-06T19:36:26.280Z,1.65
2022-11-06T19:38:52.829Z,1.58
2022-11-06T19:41:19.155Z,1.70
2022-11-06T19:43:45.488Z,1.60
2022-11-06T19:46:11.838Z,1.63
2022-11-06T19:48:38.400Z,1.80
2022-11-06T19:51:09.422Z,1.45
2022-11-06T19:53:35.792Z,1.48
2022-11-06T19:56:05.919Z,1.40
2022-11-06T19:58:32.481Z,1.83
2022-11-06T20:00:58.861Z,1.60
2022-11-06T20:03:25.229Z,2.03
2022-11-06T20:05:54.697Z,1.63
2022-11-06T20:08:20.979Z,1.73
2022-11-06T20:10:47.274Z,1.65
2022-11-06T20:13:14.118Z,1.52
2022-11-06T20:15:40.714Z,1.27
2022-11-06T20:18:07.061Z,1.20
2022-11-06T20:20:36.294Z,1.48
2022-11-06T20:23:02.950Z,1.55
2022-11-06T20:25:29.692Z,1.73
2022-11-06T20:27:56.053Z,1.60
2022-11-06T20:30:22.390Z,2.03
2022-11-06T20:32:48.687Z,1.65
2022-11-06T20:35:16.865Z,1.77
2022-11-06T20:37:43.263Z,1.73
2022-11-06T20:40:09.728Z,1.55
2022-11-06T20:42:36.099Z,2.33
2022-11-06T20:45:02.441Z,1.67
2022-11-06T20:47:28.811Z,1.70
2022-11-06T20:49:55.251Z,2.17
2022-11-06T20:52:21.583Z,1.95
2022-11-06T20:54:47.960Z,2.55
2022-11-06T20:57:15.153Z,2.08
2022-11-06T20:59:41.495Z,1.52
2022-11-06T21:02:10.660Z,1.88
2022-11-06T21:04:37.137Z,2.72
2022-11-06T21:07:03.619Z,1.98
2022-11-06T21:09:29.994Z,1.92
2022-11-06T21:11:56.279Z,2.13
2022-11-06T21:14:22.595Z,1.65
2022-11-06T21:16:49.045Z,2.05
2022-11-06T21:19:15.367Z,2.00
2022-11-06T21:21:41.689Z,1.38
2022-11-06T21:24:08.103Z,2.22
2022-11-06T21:26:35.539Z,2.17
2022-11-06T21:29:02.897Z,2.30
2022-11-06T21:31:30.778Z,2.05
2022-11-06T21:33:58.046Z,2.08
2022-11-06T21:36:28.615Z,1.77
2022-11-06T21:38:56.836Z,1.90
2022-11-06T21:41:24.571Z,2.88
2022-11-06T21:43:50.917Z,2.05
2022-11-06T21:46:17.879Z,2.78
2022-11-06T21:48:47.230Z,1.58
2022-11-06T21:51:16.515Z,2.65
2022-11-06T21:54:01.811Z,2.15
2022-11-06T21:56:28.195Z,2.90
2022-11-06T21:58:56.576Z,2.83
2022-11-06T22:01:23.283Z,2.25
2022-11-06T22:03:50.017Z,2.85
2022-11-06T22:06:18.433Z,2.47
2022-11-06T22:08:45.341Z,3.00
2022-11-06T22:11:16.501Z,2.42
2022-11-06T22:16:09.985Z,2.30
2022-11-06T22:18:36.639Z,3.03
2022-11-06T22:21:12.142Z,3.17
2022-11-06T22:23:38.933Z,2.63
2022-11-06T22:26:06.147Z,1.58
2022-11-06T22:28:33.274Z,2.05
2022-11-06T22:31:00.055Z,2.30
2022-11-06T22:33:26.505Z,2.50
2022-11-06T22:35:52.852Z,1.80
2022-11-06T22:38:19.149Z,2.42
2022-11-06T22:40:52.471Z,2.10
2022-11-06T22:43:18.803Z,2.67
2022-11-06T22:45:45.143Z,3.33
2022-11-06T22:48:11.458Z,2.83
2022-11-06T22:50:38.014Z,2.33
2022-11-06T22:53:04.405Z,2.17
2022-11-06T22:55:30.730Z,2.53
2022-11-06T22:57:57.046Z,2.33
2022-11-06T23:00:23.362Z,2.47
2022-11-06T23:02:49.690Z,2.30
2022-11-06T23:05:16.131Z,2.72
2022-11-06T23:07:42.478Z,2.55
2022-11-06T23:10:08.924Z,2.42
2022-11-06T23:12:35.206Z,1.85
2022-11-06T23:15:01.509Z,3.38
2022-11-06T23:17:27.843Z,2.40
2022-11-06T23:19:57.237Z,2.50
2022-11-06T23:22:35.750Z,1.48
2022-11-06T23:25:06.325Z,2.53
2022-11-06T23:27:33.240Z,2.83
2022-11-06T23:30:02.584Z,2.50
2022-11-06T23:32:30.006Z,2.22
2022-11-06T23:34:56.388Z,2.72
2022-11-06T23:37:23.160Z,2.42
2022-11-06T23:39:49.483Z,2.42
2022-11-06T23:42:16.325Z,2.38
2022-11-06T23:45:01.536Z,2.25
2022-11-06T23:47:27.908Z,1.98
2022-11-06T23:49:54.468Z,2.65
2022-11-06T23:52:20.790Z,1.75
2022-11-06T23:54:47.238Z,2.58
2022-11-06T23:57:13.906Z,2.38
2022-11-06T23:59:40.489Z,2.30
